Amery, Wisconsin
Current Conditions -  °F | °C
As of 6:15 PM on Friday 24 Oct 2014 (Local Time) from KRNH Reporting Station
Haze Haze  
Wind Chill: 56°   Ceiling: Unl
Heat Index: 56°   Visibility: 4mi
Dew Point: 55°   Wind: 8mph
Humidity: 96%   Direction: 180°S
Pressure: 29.85"   Gusts: NA
Location:  45.31°N, 92.36°W
Report Text: KRNH 242315Z AUTO 18007KT 4SM BR CLR 13/13 A2985 RMK AO2 T01340127
Loading
Personal Weather Stations






























Interactive Weather Map
Tropical Storm Tracking
New forecast layout! Learn more

10-Day Weather Forecast

Advertisements
Track Severe Weather on mobile